sensor_id;sensor_type;location;lat;lon;timestamp;pressure;altitude;pressure_sealevel;temperature;humidity
40490;BME280;26196;52.302;10.572;2023-07-13T00:03:37;100437.94;;;25.80;37.39
40490;BME280;26196;52.302;10.572;2023-07-13T00:07:38;100439.91;;;25.78;37.54
40490;BME280;26196;52.302;10.572;2023-07-13T00:11:38;100435.00;;;25.73;37.64
40490;BME280;26196;52.302;10.572;2023-07-13T00:15:38;100443.31;;;25.70;37.66
40490;BME280;26196;52.302;10.572;2023-07-13T00:19:39;100437.94;;;25.70;37.53
40490;BME280;26196;52.302;10.572;2023-07-13T00:23:40;100442.88;;;25.65;37.56
40490;BME280;26196;52.302;10.572;2023-07-13T00:27:42;100449.66;;;25.69;37.63
40490;BME280;26196;52.302;10.572;2023-07-13T00:31:43;100457.59;;;25.71;37.70
40490;BME280;26196;52.302;10.572;2023-07-13T00:35:44;100452.63;;;25.66;37.69
40490;BME280;26196;52.302;10.572;2023-07-13T00:39:44;100447.84;;;25.60;37.83
40490;BME280;26196;52.302;10.572;2023-07-13T00:43:45;100452.50;;;25.58;37.98
40490;BME280;26196;52.302;10.572;2023-07-13T00:47:46;100451.91;;;25.54;38.03
40490;BME280;26196;52.302;10.572;2023-07-13T00:55:54;100472.78;;;25.51;37.95
40490;BME280;26196;52.302;10.572;2023-07-13T01:00:02;100467.72;;;25.48;37.99
40490;BME280;26196;52.302;10.572;2023-07-13T01:04:05;100463.59;;;25.44;38.08
40490;BME280;26196;52.302;10.572;2023-07-13T01:08:08;100461.50;;;25.38;38.14
40490;BME280;26196;52.302;10.572;2023-07-13T01:12:08;100465.56;;;25.42;38.14
40490;BME280;26196;52.302;10.572;2023-07-13T01:16:19;100467.69;;;25.38;38.07
40490;BME280;26196;52.302;10.572;2023-07-13T01:20:22;100460.94;;;25.34;38.10
40490;BME280;26196;52.302;10.572;2023-07-13T01:24:22;100449.78;;;25.29;38.11
40490;BME280;26196;52.302;10.572;2023-07-13T01:28:24;100467.13;;;25.35;38.00
40490;BME280;26196;52.302;10.572;2023-07-13T01:32:26;100458.38;;;25.32;37.96
40490;BME280;26196;52.302;10.572;2023-07-13T01:36:27;100455.41;;;25.36;37.98
40490;BME280;26196;52.302;10.572;2023-07-13T01:40:28;100445.97;;;25.31;37.90
40490;BME280;26196;52.302;10.572;2023-07-13T01:44:29;100451.31;;;25.22;37.90
40490;BME280;26196;52.302;10.572;2023-07-13T01:48:30;100458.06;;;25.26;37.73
40490;BME280;26196;52.302;10.572;2023-07-13T01:52:30;100467.09;;;25.25;37.99
40490;BME280;26196;52.302;10.572;2023-07-13T01:56:30;100462.88;;;25.22;38.00
40490;BME280;26196;52.302;10.572;2023-07-13T02:00:31;100454.13;;;25.20;38.01
40490;BME280;26196;52.302;10.572;2023-07-13T02:04:32;100453.81;;;25.14;37.92
40490;BME280;26196;52.302;10.572;2023-07-13T02:08:33;100459.88;;;25.16;37.91
40490;BME280;26196;52.302;10.572;2023-07-13T02:12:34;100470.72;;;25.14;38.03
40490;BME280;26196;52.302;10.572;2023-07-13T02:16:34;100472.69;;;25.12;38.00
40490;BME280;26196;52.302;10.572;2023-07-13T02:20:35;100481.69;;;25.11;37.99
40490;BME280;26196;52.302;10.572;2023-07-13T02:24:35;100478.44;;;25.07;37.99
40490;BME280;26196;52.302;10.572;2023-07-13T02:28:35;100479.69;;;25.03;38.10
40490;BME280;26196;52.302;10.572;2023-07-13T02:32:35;100477.16;;;25.02;38.05
40490;BME280;26196;52.302;10.572;2023-07-13T02:36:36;100481.78;;;25.00;38.01
40490;BME280;26196;52.302;10.572;2023-07-13T02:40:36;100489.13;;;24.98;38.01
40490;BME280;26196;52.302;10.572;2023-07-13T02:44:37;100483.34;;;24.93;37.95
40490;BME280;26196;52.302;10.572;2023-07-13T02:48:38;100472.03;;;24.89;37.94
40490;BME280;26196;52.302;10.572;2023-07-13T02:52:39;100455.41;;;24.85;38.14
40490;BME280;26196;52.302;10.572;2023-07-13T02:56:40;100463.44;;;24.85;38.17
40490;BME280;26196;52.302;10.572;2023-07-13T03:00:40;100443.47;;;24.68;37.94
40490;BME280;26196;52.302;10.572;2023-07-13T03:04:41;100462.97;;;24.80;38.12
40490;BME280;26196;52.302;10.572;2023-07-13T03:08:41;100442.38;;;24.71;38.16
40490;BME280;26196;52.302;10.572;2023-07-13T03:12:42;100442.13;;;24.74;38.05
40490;BME280;26196;52.302;10.572;2023-07-13T03:16:42;100450.38;;;24.71;38.03
40490;BME280;26196;52.302;10.572;2023-07-13T03:20:43;100446.31;;;24.67;38.11
40490;BME280;26196;52.302;10.572;2023-07-13T03:24:44;100444.59;;;24.66;38.25
40490;BME280;26196;52.302;10.572;2023-07-13T03:28:45;100440.34;;;24.63;37.73
40490;BME280;26196;52.302;10.572;2023-07-13T03:32:46;100457.13;;;24.65;38.09
40490;BME280;26196;52.302;10.572;2023-07-13T03:36:46;100462.75;;;24.62;38.00
40490;BME280;26196;52.302;10.572;2023-07-13T03:40:46;100451.88;;;24.54;38.31
40490;BME280;26196;52.302;10.572;2023-07-13T03:44:46;100461.03;;;24.52;38.33
40490;BME280;26196;52.302;10.572;2023-07-13T03:48:52;100461.75;;;24.54;38.15
40490;BME280;26196;52.302;10.572;2023-07-13T03:52:53;100461.13;;;24.50;38.00
40490;BME280;26196;52.302;10.572;2023-07-13T03:56:53;100479.75;;;24.52;38.16
40490;BME280;26196;52.302;10.572;2023-07-13T04:00:54;100493.84;;;24.54;38.13
40490;BME280;26196;52.302;10.572;2023-07-13T04:04:54;100494.13;;;24.51;38.23
40490;BME280;26196;52.302;10.572;2023-07-13T04:08:58;100477.69;;;24.44;38.20
40490;BME280;26196;52.302;10.572;2023-07-13T04:12:58;100482.97;;;24.45;38.38
40490;BME280;26196;52.302;10.572;2023-07-13T04:16:58;100494.63;;;24.44;38.19
40490;BME280;26196;52.302;10.572;2023-07-13T04:20:59;100495.72;;;24.42;38.50
40490;BME280;26196;52.302;10.572;2023-07-13T04:24:59;100491.72;;;24.36;38.41
40490;BME280;26196;52.302;10.572;2023-07-13T04:28:59;100483.97;;;24.33;38.01
40490;BME280;26196;52.302;10.572;2023-07-13T04:33:00;100510.06;;;24.41;38.22
40490;BME280;26196;52.302;10.572;2023-07-13T04:37:00;100507.44;;;24.30;38.23
40490;BME280;26196;52.302;10.572;2023-07-13T04:41:03;100516.66;;;24.37;38.40
40490;BME280;26196;52.302;10.572;2023-07-13T04:45:06;100516.06;;;24.33;38.24
40490;BME280;26196;52.302;10.572;2023-07-13T04:49:06;100526.63;;;24.35;38.58
40490;BME280;26196;52.302;10.572;2023-07-13T04:53:07;100540.16;;;24.33;38.59
40490;BME280;26196;52.302;10.572;2023-07-13T04:57:08;100533.97;;;24.33;38.78
40490;BME280;26196;52.302;10.572;2023-07-13T05:01:09;100535.75;;;24.32;38.86
40490;BME280;26196;52.302;10.572;2023-07-13T05:05:09;100530.94;;;24.26;38.88
40490;BME280;26196;52.302;10.572;2023-07-13T05:09:10;100526.84;;;24.22;38.92
40490;BME280;26196;52.302;10.572;2023-07-13T05:13:10;100539.13;;;24.24;38.86
40490;BME280;26196;52.302;10.572;2023-07-13T05:17:10;100527.34;;;24.16;38.84
40490;BME280;26196;52.302;10.572;2023-07-13T05:21:11;100535.25;;;24.17;39.04
40490;BME280;26196;52.302;10.572;2023-07-13T05:25:12;100546.25;;;24.24;39.00
40490;BME280;26196;52.302;10.572;2023-07-13T05:29:12;100545.69;;;24.20;39.19
40490;BME280;26196;52.302;10.572;2023-07-13T05:33:13;100552.13;;;24.18;39.01
40490;BME280;26196;52.302;10.572;2023-07-13T05:37:13;100554.81;;;24.18;38.76
40490;BME280;26196;52.302;10.572;2023-07-13T05:41:13;100554.69;;;24.19;38.99
40490;BME280;26196;52.302;10.572;2023-07-13T05:45:14;100552.13;;;24.18;39.11
40490;BME280;26196;52.302;10.572;2023-07-13T05:49:14;100537.84;;;24.08;38.88
40490;BME280;26196;52.302;10.572;2023-07-13T05:53:14;100562.72;;;24.19;39.03
40490;BME280;26196;52.302;10.572;2023-07-13T05:57:15;100562.84;;;24.18;39.33
40490;BME280;26196;52.302;10.572;2023-07-13T06:01:16;100567.47;;;24.16;39.28
40490;BME280;26196;52.302;10.572;2023-07-13T06:05:16;100566.03;;;24.12;39.42
40490;BME280;26196;52.302;10.572;2023-07-13T06:09:16;100570.38;;;24.13;39.47
40490;BME280;26196;52.302;10.572;2023-07-13T06:13:17;100551.25;;;23.96;39.37
40490;BME280;26196;52.302;10.572;2023-07-13T06:17:19;100567.84;;;24.11;39.44
40490;BME280;26196;52.302;10.572;2023-07-13T06:21:21;100562.00;;;24.06;39.49
40490;BME280;26196;52.302;10.572;2023-07-13T06:25:22;100569.66;;;24.11;39.82
40490;BME280;26196;52.302;10.572;2023-07-13T06:29:22;100569.19;;;24.06;40.20
40490;BME280;26196;52.302;10.572;2023-07-13T06:33:23;100577.09;;;24.07;40.30
40490;BME280;26196;52.302;10.572;2023-07-13T06:37:23;100571.59;;;24.09;40.09
40490;BME280;26196;52.302;10.572;2023-07-13T06:41:23;100576.25;;;24.07;40.11
40490;BME280;26196;52.302;10.572;2023-07-13T06:45:26;100574.44;;;24.07;40.28
40490;BME280;26196;52.302;10.572;2023-07-13T06:49:26;100571.59;;;24.09;40.38
40490;BME280;26196;52.302;10.572;2023-07-13T06:53:26;100571.75;;;24.07;40.61
40490;BME280;26196;52.302;10.572;2023-07-13T06:57:27;100576.25;;;24.07;40.80
40490;BME280;26196;52.302;10.572;2023-07-13T07:01:27;100578.19;;;24.05;40.68
40490;BME280;26196;52.302;10.572;2023-07-13T07:05:28;100582.44;;;24.07;40.62
40490;BME280;26196;52.302;10.572;2023-07-13T07:09:28;100560.88;;;23.88;40.99
40490;BME280;26196;52.302;10.572;2023-07-13T07:13:30;100583.81;;;24.01;41.04
40490;BME280;26196;52.302;10.572;2023-07-13T07:17:30;100579.31;;;24.02;40.99
40490;BME280;26196;52.302;10.572;2023-07-13T07:21:30;100574.22;;;23.99;41.09
40490;BME280;26196;52.302;10.572;2023-07-13T07:25:31;100578.47;;;24.01;40.88
40490;BME280;26196;52.302;10.572;2023-07-13T07:29:32;100587.31;;;24.02;41.18
40490;BME280;26196;52.302;10.572;2023-07-13T07:33:33;100584.91;;;23.99;40.99
40490;BME280;26196;52.302;10.572;2023-07-13T07:37:34;100584.50;;;24.03;40.79
40490;BME280;26196;52.302;10.572;2023-07-13T07:41:35;100580.03;;;24.04;40.76
40490;BME280;26196;52.302;10.572;2023-07-13T07:45:35;100586.47;;;24.01;40.85
40490;BME280;26196;52.302;10.572;2023-07-13T07:49:37;100586.09;;;24.06;40.75
40490;BME280;26196;52.302;10.572;2023-07-13T07:53:38;100589.75;;;24.05;40.81
40490;BME280;26196;52.302;10.572;2023-07-13T07:57:38;100585.38;;;24.04;40.83
40490;BME280;26196;52.302;10.572;2023-07-13T08:01:38;100584.91;;;23.99;40.84
40490;BME280;26196;52.302;10.572;2023-07-13T08:05:39;100597.66;;;24.07;40.97
40490;BME280;26196;52.302;10.572;2023-07-13T08:09:39;100596.06;;;24.04;41.04
40490;BME280;26196;52.302;10.572;2023-07-13T08:13:39;100601.28;;;24.06;40.86
40490;BME280;26196;52.302;10.572;2023-07-13T08:17:40;100609.19;;;24.07;40.71
40490;BME280;26196;52.302;10.572;2023-07-13T08:21:41;100611.03;;;24.07;40.56
40490;BME280;26196;52.302;10.572;2023-07-13T08:25:50;100611.88;;;24.07;40.66
40490;BME280;26196;52.302;10.572;2023-07-13T08:29:52;100610.88;;;24.08;40.53
40490;BME280;26196;52.302;10.572;2023-07-13T08:33:52;100610.16;;;24.06;40.42
40490;BME280;26196;52.302;10.572;2023-07-13T08:37:53;100630.59;;;24.07;40.69
40490;BME280;26196;52.302;10.572;2023-07-13T08:46:36;100621.72;;;24.07;40.56
40490;BME280;26196;52.302;10.572;2023-07-13T08:50:48;100615.28;;;24.09;40.59
40490;BME280;26196;52.302;10.572;2023-07-13T08:54:51;100617.06;;;24.09;40.54
40490;BME280;26196;52.302;10.572;2023-07-13T08:58:59;100621.47;;;24.10;40.44
40490;BME280;26196;52.302;10.572;2023-07-13T09:03:02;100613.69;;;24.07;40.55
40490;BME280;26196;52.302;10.572;2023-07-13T09:07:12;100621.47;;;24.10;40.32
40490;BME280;26196;52.302;10.572;2023-07-13T09:11:33;100629.75;;;24.07;40.62
40490;BME280;26196;52.302;10.572;2023-07-13T09:15:46;100621.47;;;24.10;40.60
40490;BME280;26196;52.302;10.572;2023-07-13T09:19:53;100614.28;;;24.10;41.03
40490;BME280;26196;52.302;10.572;2023-07-13T09:23:59;100625.56;;;24.14;40.31
40490;BME280;26196;52.302;10.572;2023-07-13T09:28:12;100599.38;;;23.96;40.59
40490;BME280;26196;52.302;10.572;2023-07-13T09:32:18;100621.94;;;24.15;40.96
40490;BME280;26196;52.302;10.572;2023-07-13T09:36:25;100629.94;;;24.15;40.63
40490;BME280;26196;52.302;10.572;2023-07-13T09:40:49;100624.59;;;24.15;40.98
40490;BME280;26196;52.302;10.572;2023-07-13T09:48:55;100589.53;;;23.97;40.52
40490;BME280;26196;52.302;10.572;2023-07-13T09:52:56;100626.91;;;24.19;40.49
40490;BME280;26196;52.302;10.572;2023-07-13T09:56:59;100621.28;;;24.22;40.75
40490;BME280;26196;52.302;10.572;2023-07-13T10:01:02;100617.53;;;24.14;40.51
40490;BME280;26196;52.302;10.572;2023-07-13T10:05:06;100611.34;;;24.13;40.51
40490;BME280;26196;52.302;10.572;2023-07-13T10:09:07;100629.06;;;24.26;40.75
40490;BME280;26196;52.302;10.572;2023-07-13T10:13:25;100616.31;;;24.18;40.61
40490;BME280;26196;52.302;10.572;2023-07-13T10:17:31;100626.25;;;24.27;40.90
40490;BME280;26196;52.302;10.572;2023-07-13T10:21:37;100624.69;;;24.24;41.00
40490;BME280;26196;52.302;10.572;2023-07-13T10:25:41;100625.28;;;24.28;40.61
40490;BME280;26196;52.302;10.572;2023-07-13T10:29:48;100625.03;;;24.31;40.49
40490;BME280;26196;52.302;10.572;2023-07-13T10:33:50;100629.38;;;24.32;40.75
40490;BME280;26196;52.302;10.572;2023-07-13T10:37:57;100629.28;;;24.34;40.65
40490;BME280;26196;52.302;10.572;2023-07-13T10:42:05;100624.66;;;24.36;40.88
40490;BME280;26196;52.302;10.572;2023-07-13T10:46:08;100626.34;;;24.37;40.41
40490;BME280;26196;52.302;10.572;2023-07-13T10:50:18;100631.56;;;24.38;41.02
40490;BME280;26196;52.302;10.572;2023-07-13T10:54:22;100612.13;;;24.36;40.69
40490;BME280;26196;52.302;10.572;2023-07-13T10:58:36;100626.94;;;24.40;40.96
40490;BME280;26196;52.302;10.572;2023-07-13T11:02:37;100626.69;;;24.43;40.43
40490;BME280;26196;52.302;10.572;2023-07-13T11:06:38;100630.13;;;24.45;40.59
40490;BME280;26196;52.302;10.572;2023-07-13T11:10:54;100628.41;;;24.44;40.41
40490;BME280;26196;52.302;10.572;2023-07-13T11:27:38;100629.84;;;24.49;40.60
40490;BME280;26196;52.302;10.572;2023-07-13T11:31:39;100626.19;;;24.50;40.59
40490;BME280;26196;52.302;10.572;2023-07-13T11:35:59;100617.22;;;24.51;40.69
40490;BME280;26196;52.302;10.572;2023-07-13T11:40:00;100625.94;;;24.53;40.70
40490;BME280;26196;52.302;10.572;2023-07-13T11:44:14;100622.28;;;24.54;40.78
40490;BME280;26196;52.302;10.572;2023-07-13T11:48:28;100629.34;;;24.55;40.46
40490;BME280;26196;52.302;10.572;2023-07-13T11:52:34;100593.50;;;24.35;40.52
40490;BME280;26196;52.302;10.572;2023-07-13T11:56:37;100616.94;;;24.54;40.87
40490;BME280;26196;52.302;10.572;2023-07-13T12:00:37;100612.06;;;24.59;40.40
40490;BME280;26196;52.302;10.572;2023-07-13T12:04:38;100616.41;;;24.60;40.79
40490;BME280;26196;52.302;10.572;2023-07-13T12:08:39;100609.13;;;24.62;40.45
40490;BME280;26196;52.302;10.572;2023-07-13T12:12:58;100608.97;;;24.63;40.55
40490;BME280;26196;52.302;10.572;2023-07-13T12:17:00;100600.09;;;24.63;40.66
40490;BME280;26196;52.302;10.572;2023-07-13T12:21:00;100603.50;;;24.65;40.31
40490;BME280;26196;52.302;10.572;2023-07-13T12:25:01;100603.50;;;24.65;40.46
40490;BME280;26196;52.302;10.572;2023-07-13T12:29:05;100614.78;;;24.68;40.35
40490;BME280;26196;52.302;10.572;2023-07-13T12:33:08;100612.97;;;24.69;40.63
40490;BME280;26196;52.302;10.572;2023-07-13T12:37:12;100605.63;;;24.71;40.35
40490;BME280;26196;52.302;10.572;2023-07-13T12:41:12;100619.03;;;24.71;40.36
40490;BME280;26196;52.302;10.572;2023-07-13T12:45:27;100608.59;;;24.68;40.40
40490;BME280;26196;52.302;10.572;2023-07-13T12:49:32;100604.69;;;24.72;40.34
40490;BME280;26196;52.302;10.572;2023-07-13T12:53:40;100614.13;;;24.76;40.23
40490;BME280;26196;52.302;10.572;2023-07-13T12:58:04;100606.97;;;24.77;40.42
40490;BME280;26196;52.302;10.572;2023-07-13T13:02:29;100606.69;;;24.80;40.36
40490;BME280;26196;52.302;10.572;2023-07-13T13:06:29;100604.88;;;24.80;40.30
40490;BME280;26196;52.302;10.572;2023-07-13T13:10:30;100595.84;;;24.81;40.43
40490;BME280;26196;52.302;10.572;2023-07-13T13:14:30;100605.44;;;24.84;40.31
40490;BME280;26196;52.302;10.572;2023-07-13T13:18:31;100610.69;;;24.85;40.38
40490;BME280;26196;52.302;10.572;2023-07-13T13:22:31;100598.84;;;24.88;40.31
40490;BME280;26196;52.302;10.572;2023-07-13T13:26:32;100592.66;;;24.87;40.18
40490;BME280;26196;52.302;10.572;2023-07-13T13:30:33;100593.34;;;24.89;40.11
40490;BME280;26196;52.302;10.572;2023-07-13T13:34:33;100598.47;;;24.93;40.31
40490;BME280;26196;52.302;10.572;2023-07-13T13:38:34;100594.34;;;24.88;40.25
40490;BME280;26196;52.302;10.572;2023-07-13T13:42:34;100599.16;;;24.95;40.15
40490;BME280;26196;52.302;10.572;2023-07-13T13:46:35;100599.88;;;24.97;39.98
40490;BME280;26196;52.302;10.572;2023-07-13T13:50:36;100604.28;;;24.98;40.26
40490;BME280;26196;52.302;10.572;2023-07-13T13:54:36;100594.69;;;24.95;40.15
40490;BME280;26196;52.302;10.572;2023-07-13T13:58:36;100618.34;;;25.00;40.27
40490;BME280;26196;52.302;10.572;2023-07-13T14:02:37;100605.25;;;24.97;40.20
40490;BME280;26196;52.302;10.572;2023-07-13T14:06:37;100612.03;;;25.01;40.33
40490;BME280;26196;52.302;10.572;2023-07-13T14:10:38;100619.81;;;25.04;40.11
40490;BME280;26196;52.302;10.572;2023-07-13T14:14:39;100626.00;;;25.04;40.02
40490;BME280;26196;52.302;10.572;2023-07-13T14:18:40;100649.84;;;25.07;40.15
40490;BME280;26196;52.302;10.572;2023-07-13T14:22:41;100700.59;;;25.09;40.02
40490;BME280;26196;52.302;10.572;2023-07-13T14:26:45;100703.75;;;25.14;40.86
40490;BME280;26196;52.302;10.572;2023-07-13T14:30:46;100709.44;;;25.21;41.06
40490;BME280;26196;52.302;10.572;2023-07-13T14:34:47;100697.31;;;25.17;40.86
40490;BME280;26196;52.302;10.572;2023-07-13T14:38:48;100721.88;;;25.22;41.22
40490;BME280;26196;52.302;10.572;2023-07-13T14:42:48;100730.75;;;25.22;41.53
40490;BME280;26196;52.302;10.572;2023-07-13T14:46:49;100732.59;;;25.22;41.30
40490;BME280;26196;52.302;10.572;2023-07-13T14:50:56;100723.94;;;25.18;41.56
40490;BME280;26196;52.302;10.572;2023-07-13T14:54:56;100743.88;;;25.25;41.77
40490;BME280;26196;52.302;10.572;2023-07-13T14:58:57;100739.38;;;25.26;41.71
40490;BME280;26196;52.302;10.572;2023-07-13T15:02:58;100733.03;;;25.27;42.03
40490;BME280;26196;52.302;10.572;2023-07-13T15:07:01;100737.56;;;25.26;41.86
40490;BME280;26196;52.302;10.572;2023-07-13T15:11:02;100744.59;;;25.27;42.00
40490;BME280;26196;52.302;10.572;2023-07-13T15:15:05;100758.72;;;25.29;41.93
40490;BME280;26196;52.302;10.572;2023-07-13T15:19:07;100753.63;;;25.26;42.18
40490;BME280;26196;52.302;10.572;2023-07-13T15:23:09;100762.38;;;25.28;42.11
40490;BME280;26196;52.302;10.572;2023-07-13T15:27:13;100774.81;;;25.29;42.12
40490;BME280;26196;52.302;10.572;2023-07-13T15:31:21;100769.44;;;25.29;42.04
40490;BME280;26196;52.302;10.572;2023-07-13T15:35:25;100770.28;;;25.30;42.21
40490;BME280;26196;52.302;10.572;2023-07-13T15:39:25;100771.41;;;25.27;42.42
40490;BME280;26196;52.302;10.572;2023-07-13T15:43:26;100764.94;;;25.30;42.25
40490;BME280;26196;52.302;10.572;2023-07-13T15:47:26;100769.44;;;25.29;42.12
40490;BME280;26196;52.302;10.572;2023-07-13T15:51:30;100763.88;;;25.21;42.47
40490;BME280;26196;52.302;10.572;2023-07-13T15:55:31;100778.44;;;25.28;42.25
40490;BME280;26196;52.302;10.572;2023-07-13T15:59:31;100781.13;;;25.28;42.40
40490;BME280;26196;52.302;10.572;2023-07-13T16:03:31;100772.50;;;25.25;42.21
40490;BME280;26196;52.302;10.572;2023-07-13T16:07:32;100776.19;;;25.24;42.27
40490;BME280;26196;52.302;10.572;2023-07-13T16:11:34;100782.22;;;25.26;42.20
40490;BME280;26196;52.302;10.572;2023-07-13T16:15:35;100785.91;;;25.25;42.29
40490;BME280;26196;52.302;10.572;2023-07-13T16:19:35;100787.72;;;25.24;42.49
40490;BME280;26196;52.302;10.572;2023-07-13T16:23:36;100788.00;;;25.21;42.27
40490;BME280;26196;52.302;10.572;2023-07-13T16:27:37;100777.41;;;25.20;42.27
40490;BME280;26196;52.302;10.572;2023-07-13T16:31:37;100788.97;;;25.20;42.23
40490;BME280;26196;52.302;10.572;2023-07-13T16:35:40;100783.59;;;25.20;42.16
40490;BME280;26196;52.302;10.572;2023-07-13T16:39:47;100788.22;;;25.18;42.30
40490;BME280;26196;52.302;10.572;2023-07-13T16:43:48;100785.06;;;25.13;42.14
40490;BME280;26196;52.302;10.572;2023-07-13T16:47:53;100796.28;;;25.18;42.19
40490;BME280;26196;52.302;10.572;2023-07-13T16:51:54;100791.53;;;25.10;42.02
40490;BME280;26196;52.302;10.572;2023-07-13T16:55:55;100785.69;;;25.17;42.16
40490;BME280;26196;52.302;10.572;2023-07-13T16:59:56;100785.94;;;25.14;42.19
40490;BME280;26196;52.302;10.572;2023-07-13T17:03:57;100789.47;;;25.14;42.25
40490;BME280;26196;52.302;10.572;2023-07-13T17:08:00;100783.38;;;25.12;42.29
40490;BME280;26196;52.302;10.572;2023-07-13T17:12:00;100774.34;;;25.13;42.08
40490;BME280;26196;52.302;10.572;2023-07-13T17:16:01;100769.78;;;25.04;42.18
40490;BME280;26196;52.302;10.572;2023-07-13T17:20:02;100777.16;;;25.11;41.96
40490;BME280;26196;52.302;10.572;2023-07-13T17:24:13;100781.81;;;25.09;41.94
40490;BME280;26196;52.302;10.572;2023-07-13T17:28:15;100783.75;;;25.07;41.85
40490;BME280;26196;52.302;10.572;2023-07-13T17:32:18;100761.38;;;24.97;41.79
40490;BME280;26196;52.302;10.572;2023-07-13T17:36:19;100783.28;;;25.02;41.70
40490;BME280;26196;52.302;10.572;2023-07-13T17:40:20;100787.94;;;25.00;41.79
40490;BME280;26196;52.302;10.572;2023-07-13T17:44:22;100795.38;;;24.97;41.74
40490;BME280;26196;52.302;10.572;2023-07-13T17:48:23;100783.69;;;24.98;41.56
40490;BME280;26196;52.302;10.572;2023-07-13T17:52:24;100789.53;;;24.92;41.65
40490;BME280;26196;52.302;10.572;2023-07-13T17:56:28;100795.63;;;24.94;41.67
40490;BME280;26196;52.302;10.572;2023-07-13T18:00:34;100800.41;;;24.90;41.64
40490;BME280;26196;52.302;10.572;2023-07-13T18:04:37;100808.16;;;24.93;41.59
40490;BME280;26196;52.302;10.572;2023-07-13T18:08:38;100794.16;;;24.89;41.44
40490;BME280;26196;52.302;10.572;2023-07-13T18:12:38;100802.94;;;24.92;41.42
40490;BME280;26196;52.302;10.572;2023-07-13T18:16:40;100791.50;;;24.89;41.42
40490;BME280;26196;52.302;10.572;2023-07-13T18:20:42;100797.94;;;24.87;41.11
40490;BME280;26196;52.302;10.572;2023-07-13T18:24:44;100795.28;;;24.87;41.00
40490;BME280;26196;52.302;10.572;2023-07-13T18:28:46;100797.94;;;24.87;41.19
40490;BME280;26196;52.302;10.572;2023-07-13T18:32:50;100791.00;;;24.84;40.93
40490;BME280;26196;52.302;10.572;2023-07-13T18:36:53;100774.38;;;24.81;40.74
40490;BME280;26196;52.302;10.572;2023-07-13T18:40:55;100787.63;;;24.82;40.92
40490;BME280;26196;52.302;10.572;2023-07-13T18:44:55;100800.28;;;24.80;40.95
40490;BME280;26196;52.302;10.572;2023-07-13T18:48:56;100805.66;;;24.80;40.85
40490;BME280;26196;52.302;10.572;2023-07-13T18:52:57;100803.22;;;24.77;40.92
40490;BME280;26196;52.302;10.572;2023-07-13T18:56:57;100808.31;;;24.80;40.82
40490;BME280;26196;52.302;10.572;2023-07-13T19:00:58;100814.91;;;24.76;40.77
40490;BME280;26196;52.302;10.572;2023-07-13T19:04:59;100818.56;;;24.75;40.96
40490;BME280;26196;52.302;10.572;2023-07-13T19:08:59;100834.03;;;24.72;40.94
40490;BME280;26196;52.302;10.572;2023-07-13T19:13:00;100841.19;;;24.71;40.88
40490;BME280;26196;52.302;10.572;2023-07-13T19:17:03;100844.84;;;24.70;41.13
40490;BME280;26196;52.302;10.572;2023-07-13T19:21:11;100850.31;;;24.68;40.88
40490;BME280;26196;52.302;10.572;2023-07-13T19:25:19;100846.81;;;24.68;40.98
40490;BME280;26196;52.302;10.572;2023-07-13T19:29:23;100849.72;;;24.65;41.01
40490;BME280;26196;52.302;10.572;2023-07-13T19:33:24;100850.56;;;24.65;41.07
40490;BME280;26196;52.302;10.572;2023-07-13T19:37:24;100859.69;;;24.63;40.91
40490;BME280;26196;52.302;10.572;2023-07-13T19:41:26;100865.78;;;24.65;40.77
40490;BME280;26196;52.302;10.572;2023-07-13T19:45:27;100857.38;;;24.58;40.95
40490;BME280;26196;52.302;10.572;2023-07-13T19:49:27;100858.38;;;24.57;40.83
40490;BME280;26196;52.302;10.572;2023-07-13T19:53:28;100875.44;;;24.56;40.90
40490;BME280;26196;52.302;10.572;2023-07-13T19:57:30;100887.22;;;24.54;40.88
40490;BME280;26196;52.302;10.572;2023-07-13T20:01:30;100877.72;;;24.50;40.99
40490;BME280;26196;52.302;10.572;2023-07-13T20:05:31;100880.53;;;24.48;40.85
40490;BME280;26196;52.302;10.572;2023-07-13T20:09:31;100885.91;;;24.48;40.63
40490;BME280;26196;52.302;10.572;2023-07-13T20:13:34;100891.34;;;24.47;40.74
40490;BME280;26196;52.302;10.572;2023-07-13T20:17:36;100890.84;;;24.41;40.76
40490;BME280;26196;52.302;10.572;2023-07-13T20:21:37;100886.56;;;24.39;40.82
40490;BME280;26196;52.302;10.572;2023-07-13T20:25:37;100890.47;;;24.35;40.83
40490;BME280;26196;52.302;10.572;2023-07-13T20:29:38;100889.34;;;24.37;40.53
40490;BME280;26196;52.302;10.572;2023-07-13T20:33:38;100900.06;;;24.37;40.45
40490;BME280;26196;52.302;10.572;2023-07-13T20:37:38;100895.81;;;24.35;41.06
40490;BME280;26196;52.302;10.572;2023-07-13T20:41:39;100893.53;;;24.30;40.48
40490;BME280;26196;52.302;10.572;2023-07-13T20:45:39;100900.56;;;24.31;40.50
40490;BME280;26196;52.302;10.572;2023-07-13T20:49:40;100899.22;;;24.26;40.62
40490;BME280;26196;52.302;10.572;2023-07-13T20:53:40;100890.59;;;24.22;40.47
40490;BME280;26196;52.302;10.572;2023-07-13T20:57:41;100894.84;;;24.24;40.44
40490;BME280;26196;52.302;10.572;2023-07-13T21:01:42;100892.53;;;24.20;40.32
40490;BME280;26196;52.302;10.572;2023-07-13T21:05:43;100895.31;;;24.18;40.31
40490;BME280;26196;52.302;10.572;2023-07-13T21:09:43;100902.59;;;24.16;40.44
40490;BME280;26196;52.302;10.572;2023-07-13T21:13:43;100905.28;;;24.16;40.41
40490;BME280;26196;52.302;10.572;2023-07-13T21:17:46;100907.34;;;24.13;40.27